sensor_id;sensor_type;location;lat;lon;timestamp;pressure;altitude;pressure_sealevel;temperature;humidity
57801;BME280;43627;42.728;23.256;2022-12-11T00:02:11;92865.25;;;9.61;100.00
57801;BME280;43627;42.728;23.256;2022-12-11T00:04:38;92851.44;;;9.59;100.00
57801;BME280;43627;42.728;23.256;2022-12-11T00:07:05;92973.56;;;10.40;100.00
57801;BME280;43627;42.728;23.256;2022-12-11T00:09:32;92963.47;;;10.35;100.00
57801;BME280;43627;42.728;23.256;2022-12-11T00:11:59;92879.47;;;9.79;100.00
57801;BME280;43627;42.728;23.256;2022-12-11T00:14:28;92889.31;;;9.87;100.00
57801;BME280;43627;42.728;23.256;2022-12-11T00:16:55;92874.22;;;9.86;100.00
57801;BME280;43627;42.728;23.256;2022-12-11T00:19:22;92946.31;;;9.74;100.00
57801;BME280;43627;42.728;23.256;2022-12-11T00:21:48;92909.22;;;9.71;100.00
57801;BME280;43627;42.728;23.256;2022-12-11T00:24:15;92961.25;;;9.56;100.00
57801;BME280;43627;42.728;23.256;2022-12-11T00:26:42;92917.88;;;9.34;100.00
57801;BME280;43627;42.728;23.256;2022-12-11T00:29:10;92952.41;;;9.50;100.00
57801;BME280;43627;42.728;23.256;2022-12-11T00:31:40;92941.84;;;9.35;100.00
57801;BME280;43627;42.728;23.256;2022-12-11T00:34:08;92934.41;;;9.41;100.00
57801;BME280;43627;42.728;23.256;2022-12-11T00:36:34;92935.28;;;9.55;100.00
57801;BME280;43627;42.728;23.256;2022-12-11T00:39:03;92877.28;;;9.00;100.00
57801;BME280;43627;42.728;23.256;2022-12-11T00:41:30;92900.78;;;9.39;100.00
57801;BME280;43627;42.728;23.256;2022-12-11T00:43:57;92953.03;;;9.67;100.00
57801;BME280;43627;42.728;23.256;2022-12-11T00:46:24;92949.31;;;9.65;100.00
57801;BME280;43627;42.728;23.256;2022-12-11T00:48:51;92865.22;;;9.31;100.00
57801;BME280;43627;42.728;23.256;2022-12-11T00:51:19;92918.44;;;9.62;100.00
57801;BME280;43627;42.728;23.256;2022-12-11T00:53:45;92914.47;;;9.63;100.00
57801;BME280;43627;42.728;23.256;2022-12-11T00:56:15;92923.47;;;9.83;100.00
57801;BME280;43627;42.728;23.256;2022-12-11T00:58:44;92958.53;;;9.56;100.00
57801;BME280;43627;42.728;23.256;2022-12-11T01:01:20;92933.28;;;9.61;100.00
57801;BME280;43627;42.728;23.256;2022-12-11T01:03:48;92922.34;;;9.26;100.00
57801;BME280;43627;42.728;23.256;2022-12-11T01:06:17;92959.97;;;9.63;100.00
57801;BME280;43627;42.728;23.256;2022-12-11T01:08:45;92925.13;;;9.61;100.00
57801;BME280;43627;42.728;23.256;2022-12-11T01:11:14;92919.03;;;9.50;100.00
57801;BME280;43627;42.728;23.256;2022-12-11T01:13:42;92946.72;;;9.84;100.00
57801;BME280;43627;42.728;23.256;2022-12-11T01:16:13;92943.25;;;9.89;100.00
57801;BME280;43627;42.728;23.256;2022-12-11T01:18:40;92895.34;;;9.74;100.00
57801;BME280;43627;42.728;23.256;2022-12-11T01:21:10;92951.22;;;10.11;100.00
57801;BME280;43627;42.728;23.256;2022-12-11T01:23:37;92920.59;;;10.05;100.00
57801;BME280;43627;42.728;23.256;2022-12-11T01:26:09;92904.50;;;10.07;100.00
57801;BME280;43627;42.728;23.256;2022-12-11T01:28:37;92887.84;;;9.86;100.00
57801;BME280;43627;42.728;23.256;2022-12-11T01:31:12;92895.59;;;9.77;100.00
57801;BME280;43627;42.728;23.256;2022-12-11T01:33:39;92891.09;;;9.79;100.00
57801;BME280;43627;42.728;23.256;2022-12-11T01:36:14;92914.25;;;10.21;100.00
57801;BME280;43627;42.728;23.256;2022-12-11T01:38:41;92903.13;;;9.95;100.00
57801;BME280;43627;42.728;23.256;2022-12-11T01:41:09;92891.88;;;10.04;100.00
57801;BME280;43627;42.728;23.256;2022-12-11T01:43:55;92941.22;;;10.55;100.00
57801;BME280;43627;42.728;23.256;2022-12-11T01:46:23;92848.59;;;10.00;100.00
57801;BME280;43627;42.728;23.256;2022-12-11T01:48:50;92889.13;;;10.10;100.00
57801;BME280;43627;42.728;23.256;2022-12-11T01:51:17;92879.53;;;10.33;100.00
57801;BME280;43627;42.728;23.256;2022-12-11T01:53:58;92894.97;;;11.68;100.00
57801;BME280;43627;42.728;23.256;2022-12-11T01:56:29;92862.56;;;12.10;100.00
57801;BME280;43627;42.728;23.256;2022-12-11T01:58:58;92836.44;;;12.41;100.00
57801;BME280;43627;42.728;23.256;2022-12-11T02:01:52;92801.75;;;12.22;100.00
57801;BME280;43627;42.728;23.256;2022-12-11T02:04:21;92863.91;;;12.62;100.00
57801;BME280;43627;42.728;23.256;2022-12-11T02:06:50;92766.34;;;12.04;100.00
57801;BME280;43627;42.728;23.256;2022-12-11T02:09:20;92816.56;;;12.40;100.00
57801;BME280;43627;42.728;23.256;2022-12-11T02:14:56;92854.63;;;12.91;100.00
57801;BME280;43627;42.728;23.256;2022-12-11T02:17:37;92854.72;;;12.85;100.00
57801;BME280;43627;42.728;23.256;2022-12-11T02:20:23;92871.53;;;13.03;100.00
57801;BME280;43627;42.728;23.256;2022-12-11T02:25:49;92850.34;;;13.16;100.00
57801;BME280;43627;42.728;23.256;2022-12-11T02:31:08;92826.66;;;13.32;100.00
57801;BME280;43627;42.728;23.256;2022-12-11T02:33:43;92806.78;;;13.53;100.00
57801;BME280;43627;42.728;23.256;2022-12-11T02:36:13;92817.38;;;13.35;100.00
57801;BME280;43627;42.728;23.256;2022-12-11T02:38:42;92844.19;;;13.50;100.00
57801;BME280;43627;42.728;23.256;2022-12-11T02:41:17;92845.53;;;13.57;100.00
57801;BME280;43627;42.728;23.256;2022-12-11T02:43:45;92802.59;;;13.18;100.00
57801;BME280;43627;42.728;23.256;2022-12-11T02:46:14;92783.06;;;13.00;100.00
57801;BME280;43627;42.728;23.256;2022-12-11T02:48:44;92876.53;;;13.72;100.00
57801;BME280;43627;42.728;23.256;2022-12-11T02:51:15;92779.72;;;12.94;100.00
57801;BME280;43627;42.728;23.256;2022-12-11T02:53:44;92834.25;;;13.26;100.00
57801;BME280;43627;42.728;23.256;2022-12-11T02:56:16;92844.66;;;13.41;100.00
57801;BME280;43627;42.728;23.256;2022-12-11T02:58:47;92781.38;;;12.97;100.00
57801;BME280;43627;42.728;23.256;2022-12-11T03:01:24;92773.16;;;12.97;100.00
57801;BME280;43627;42.728;23.256;2022-12-11T03:03:52;92768.13;;;13.01;100.00
57801;BME280;43627;42.728;23.256;2022-12-11T03:06:23;92812.88;;;13.38;100.00
57801;BME280;43627;42.728;23.256;2022-12-11T03:08:53;92833.25;;;13.50;100.00
57801;BME280;43627;42.728;23.256;2022-12-11T03:11:20;92806.50;;;13.22;100.00
57801;BME280;43627;42.728;23.256;2022-12-11T03:13:47;92894.53;;;13.81;100.00
57801;BME280;43627;42.728;23.256;2022-12-11T03:19:09;92891.31;;;13.69;100.00
57801;BME280;43627;42.728;23.256;2022-12-11T03:22:02;92893.78;;;13.81;100.00
57801;BME280;43627;42.728;23.256;2022-12-11T03:30:11;92850.50;;;13.58;100.00
57801;BME280;43627;42.728;23.256;2022-12-11T03:32:57;92886.44;;;13.76;100.00
57801;BME280;43627;42.728;23.256;2022-12-11T03:35:33;92900.19;;;13.83;100.00
57801;BME280;43627;42.728;23.256;2022-12-11T03:38:12;92885.38;;;13.79;100.00
57801;BME280;43627;42.728;23.256;2022-12-11T03:40:42;92894.03;;;13.69;100.00
57801;BME280;43627;42.728;23.256;2022-12-11T03:43:12;92913.84;;;13.76;100.00
57801;BME280;43627;42.728;23.256;2022-12-11T03:45:41;92885.88;;;13.56;100.00
57801;BME280;43627;42.728;23.256;2022-12-11T03:48:09;92940.88;;;13.79;100.00
57801;BME280;43627;42.728;23.256;2022-12-11T03:50:38;92854.28;;;13.08;100.00
57801;BME280;43627;42.728;23.256;2022-12-11T03:53:06;92857.97;;;13.10;100.00
57801;BME280;43627;42.728;23.256;2022-12-11T03:55:35;92872.16;;;13.09;100.00
57801;BME280;43627;42.728;23.256;2022-12-11T03:58:03;92915.19;;;13.48;100.00
57801;BME280;43627;42.728;23.256;2022-12-11T04:00:31;92972.50;;;13.80;100.00
57801;BME280;43627;42.728;23.256;2022-12-11T04:02:58;92886.16;;;13.19;100.00
57801;BME280;43627;42.728;23.256;2022-12-11T04:05:44;92972.19;;;13.84;100.00
57801;BME280;43627;42.728;23.256;2022-12-11T04:08:11;92972.19;;;13.84;100.00
57801;BME280;43627;42.728;23.256;2022-12-11T04:10:39;92942.13;;;13.57;100.00
57801;BME280;43627;42.728;23.256;2022-12-11T04:13:07;92979.53;;;13.89;100.00
57801;BME280;43627;42.728;23.256;2022-12-11T04:15:34;92988.56;;;13.97;100.00
57801;BME280;43627;42.728;23.256;2022-12-11T04:18:02;92951.34;;;13.67;100.00
57801;BME280;43627;42.728;23.256;2022-12-11T04:20:47;92947.69;;;13.52;100.00
57801;BME280;43627;42.728;23.256;2022-12-11T04:23:32;93007.34;;;13.93;100.00
57801;BME280;43627;42.728;23.256;2022-12-11T04:26:19;92950.88;;;13.56;100.00
57801;BME280;43627;42.728;23.256;2022-12-11T04:28:46;93008.38;;;14.03;100.00
57801;BME280;43627;42.728;23.256;2022-12-11T04:31:17;92992.81;;;13.85;100.00
57801;BME280;43627;42.728;23.256;2022-12-11T04:33:45;93000.06;;;13.82;100.00
57801;BME280;43627;42.728;23.256;2022-12-11T04:36:13;93017.97;;;13.83;100.00
57801;BME280;43627;42.728;23.256;2022-12-11T04:38:41;92976.34;;;13.51;100.00
57801;BME280;43627;42.728;23.256;2022-12-11T04:41:11;93014.53;;;13.69;100.00
57801;BME280;43627;42.728;23.256;2022-12-11T04:43:38;93027.69;;;13.71;100.00
57801;BME280;43627;42.728;23.256;2022-12-11T04:46:10;93000.56;;;13.47;100.00
57801;BME280;43627;42.728;23.256;2022-12-11T04:48:38;92928.34;;;12.97;100.00
57801;BME280;43627;42.728;23.256;2022-12-11T04:51:07;93035.81;;;13.63;100.00
57801;BME280;43627;42.728;23.256;2022-12-11T04:53:34;92998.56;;;13.34;100.00
57801;BME280;43627;42.728;23.256;2022-12-11T04:56:06;92994.16;;;13.31;100.00
57801;BME280;43627;42.728;23.256;2022-12-11T04:58:33;92955.94;;;13.12;100.00
57801;BME280;43627;42.728;23.256;2022-12-11T05:01:08;92934.06;;;12.99;100.00
57801;BME280;43627;42.728;23.256;2022-12-11T05:03:35;92961.59;;;13.14;100.00
57801;BME280;43627;42.728;23.256;2022-12-11T05:06:02;92984.03;;;13.39;100.00
57801;BME280;43627;42.728;23.256;2022-12-11T05:08:29;93021.72;;;13.59;100.00
57801;BME280;43627;42.728;23.256;2022-12-11T05:11:02;93003.91;;;13.53;100.00
57801;BME280;43627;42.728;23.256;2022-12-11T05:13:30;92963.09;;;13.28;100.00
57801;BME280;43627;42.728;23.256;2022-12-11T05:15:57;92929.50;;;12.88;100.00
57801;BME280;43627;42.728;23.256;2022-12-11T05:18:24;92961.81;;;13.16;100.00
57801;BME280;43627;42.728;23.256;2022-12-11T05:20:59;92988.03;;;13.25;100.00
57801;BME280;43627;42.728;23.256;2022-12-11T05:23:27;92976.22;;;13.16;100.00
57801;BME280;43627;42.728;23.256;2022-12-11T05:25:56;92997.31;;;13.35;100.00
57801;BME280;43627;42.728;23.256;2022-12-11T05:28:25;92976.06;;;13.28;100.00
57801;BME280;43627;42.728;23.256;2022-12-11T05:31:01;92990.47;;;13.41;100.00
57801;BME280;43627;42.728;23.256;2022-12-11T05:33:28;93026.69;;;13.48;100.00
57801;BME280;43627;42.728;23.256;2022-12-11T05:35:56;92969.00;;;13.19;100.00
57801;BME280;43627;42.728;23.256;2022-12-11T05:38:23;93015.00;;;13.47;100.00
57801;BME280;43627;42.728;23.256;2022-12-11T05:41:05;92965.28;;;13.16;100.00
57801;BME280;43627;42.728;23.256;2022-12-11T05:43:35;92923.41;;;12.82;100.00
57801;BME280;43627;42.728;23.256;2022-12-11T05:46:07;92936.16;;;12.93;100.00
57801;BME280;43627;42.728;23.256;2022-12-11T05:48:35;92992.88;;;13.32;100.00
57801;BME280;43627;42.728;23.256;2022-12-11T05:51:03;92996.34;;;13.32;100.00
57801;BME280;43627;42.728;23.256;2022-12-11T05:53:30;93007.75;;;13.36;100.00
57801;BME280;43627;42.728;23.256;2022-12-11T05:56:05;92926.47;;;12.92;100.00
57801;BME280;43627;42.728;23.256;2022-12-11T05:58:33;92913.44;;;12.71;100.00
57801;BME280;43627;42.728;23.256;2022-12-11T06:01:01;93004.56;;;13.32;100.00
57801;BME280;43627;42.728;23.256;2022-12-11T06:03:28;92917.41;;;12.97;100.00
57801;BME280;43627;42.728;23.256;2022-12-11T06:05:55;92901.75;;;12.84;100.00
57801;BME280;43627;42.728;23.256;2022-12-11T06:08:22;92994.88;;;13.58;100.00
57801;BME280;43627;42.728;23.256;2022-12-11T06:10:49;92962.16;;;13.26;100.00
57801;BME280;43627;42.728;23.256;2022-12-11T06:13:16;92916.69;;;12.83;100.00
57801;BME280;43627;42.728;23.256;2022-12-11T06:15:43;92930.34;;;12.83;100.00
57801;BME280;43627;42.728;23.256;2022-12-11T06:18:11;92944.66;;;13.15;100.00
57801;BME280;43627;42.728;23.256;2022-12-11T06:20:38;92997.59;;;13.44;100.00
57801;BME280;43627;42.728;23.256;2022-12-11T06:23:05;93013.41;;;13.65;100.00
57801;BME280;43627;42.728;23.256;2022-12-11T06:25:32;92963.75;;;13.21;100.00
57801;BME280;43627;42.728;23.256;2022-12-11T06:28:00;92947.81;;;12.93;100.00
57801;BME280;43627;42.728;23.256;2022-12-11T06:30:27;93035.41;;;13.59;100.00
57801;BME280;43627;42.728;23.256;2022-12-11T06:33:05;93018.28;;;13.46;100.00
57801;BME280;43627;42.728;23.256;2022-12-11T06:35:32;93013.00;;;13.21;100.00
57801;BME280;43627;42.728;23.256;2022-12-11T06:38:07;92969.69;;;13.06;100.00
57801;BME280;43627;42.728;23.256;2022-12-11T06:40:34;92969.38;;;12.97;100.00
57801;BME280;43627;42.728;23.256;2022-12-11T06:43:01;92967.28;;;13.03;100.00
57801;BME280;43627;42.728;23.256;2022-12-11T06:45:29;93060.06;;;13.59;100.00
57801;BME280;43627;42.728;23.256;2022-12-11T06:47:57;93039.63;;;13.60;100.00
57801;BME280;43627;42.728;23.256;2022-12-11T06:50:24;93050.97;;;13.64;100.00
57801;BME280;43627;42.728;23.256;2022-12-11T06:52:51;92983.22;;;13.31;100.00
57801;BME280;43627;42.728;23.256;2022-12-11T06:55:18;92975.94;;;13.47;100.00
57801;BME280;43627;42.728;23.256;2022-12-11T06:57:45;93024.97;;;13.71;100.00
57801;BME280;43627;42.728;23.256;2022-12-11T07:00:12;93010.13;;;13.66;100.00
57801;BME280;43627;42.728;23.256;2022-12-11T07:02:43;93049.78;;;13.99;100.00
57801;BME280;43627;42.728;23.256;2022-12-11T07:05:10;93022.22;;;13.84;100.00
57801;BME280;43627;42.728;23.256;2022-12-11T07:07:37;93007.94;;;13.65;100.00
57801;BME280;43627;42.728;23.256;2022-12-11T07:10:04;92997.91;;;13.54;100.00
57801;BME280;43627;42.728;23.256;2022-12-11T07:12:34;93000.00;;;13.61;100.00
57801;BME280;43627;42.728;23.256;2022-12-11T07:15:03;93047.19;;;13.81;100.00
57801;BME280;43627;42.728;23.256;2022-12-11T07:17:30;93052.53;;;13.99;100.00
57801;BME280;43627;42.728;23.256;2022-12-11T07:19:57;93087.00;;;13.95;100.00
57801;BME280;43627;42.728;23.256;2022-12-11T07:22:24;93075.16;;;14.00;100.00
57801;BME280;43627;42.728;23.256;2022-12-11T07:24:51;93052.84;;;13.96;100.00
57801;BME280;43627;42.728;23.256;2022-12-11T07:27:18;93040.31;;;13.87;100.00
57801;BME280;43627;42.728;23.256;2022-12-11T07:29:45;93053.69;;;13.91;100.00
57801;BME280;43627;42.728;23.256;2022-12-11T07:32:11;93018.44;;;13.74;100.00
57801;BME280;43627;42.728;23.256;2022-12-11T07:34:38;93080.50;;;14.19;100.00
57801;BME280;43627;42.728;23.256;2022-12-11T07:37:05;93083.88;;;14.25;100.00
57801;BME280;43627;42.728;23.256;2022-12-11T07:39:32;93106.81;;;14.48;100.00
57801;BME280;43627;42.728;23.256;2022-12-11T07:41:59;93091.97;;;14.30;100.00
57801;BME280;43627;42.728;23.256;2022-12-11T07:44:26;93097.00;;;14.40;100.00
57801;BME280;43627;42.728;23.256;2022-12-11T07:46:53;93120.44;;;14.41;100.00
57801;BME280;43627;42.728;23.256;2022-12-11T07:49:20;93058.50;;;14.11;100.00
57801;BME280;43627;42.728;23.256;2022-12-11T07:51:46;93093.66;;;14.34;100.00
57801;BME280;43627;42.728;23.256;2022-12-11T07:54:14;93103.69;;;14.31;100.00
57801;BME280;43627;42.728;23.256;2022-12-11T07:56:43;93116.63;;;14.30;100.00
57801;BME280;43627;42.728;23.256;2022-12-11T07:59:18;93126.25;;;14.50;100.00
57801;BME280;43627;42.728;23.256;2022-12-11T08:01:45;93112.03;;;14.25;100.00
57801;BME280;43627;42.728;23.256;2022-12-11T08:04:11;93095.78;;;14.27;100.00
57801;BME280;43627;42.728;23.256;2022-12-11T08:06:41;93112.31;;;14.35;100.00
57801;BME280;43627;42.728;23.256;2022-12-11T08:09:11;93092.94;;;14.33;100.00
57801;BME280;43627;42.728;23.256;2022-12-11T08:11:48;93080.22;;;14.22;100.00
57801;BME280;43627;42.728;23.256;2022-12-11T08:14:16;93076.75;;;14.09;100.00
57801;BME280;43627;42.728;23.256;2022-12-11T08:16:43;93106.63;;;14.33;100.00
57801;BME280;43627;42.728;23.256;2022-12-11T08:19:11;93103.41;;;14.21;100.00
57801;BME280;43627;42.728;23.256;2022-12-11T08:21:39;93100.03;;;14.15;100.00
57801;BME280;43627;42.728;23.256;2022-12-11T08:24:07;93058.44;;;13.90;100.00
57801;BME280;43627;42.728;23.256;2022-12-11T08:26:34;93107.81;;;14.24;100.00
57801;BME280;43627;42.728;23.256;2022-12-11T08:29:02;93093.28;;;14.16;100.00
57801;BME280;43627;42.728;23.256;2022-12-11T08:31:32;93106.97;;;14.16;100.00
57801;BME280;43627;42.728;23.256;2022-12-11T08:33:59;93097.72;;;14.06;100.00
57801;BME280;43627;42.728;23.256;2022-12-11T08:36:25;93081.09;;;14.04;100.00
57801;BME280;43627;42.728;23.256;2022-12-11T08:38:54;93049.97;;;14.01;100.00
57801;BME280;43627;42.728;23.256;2022-12-11T08:41:24;93105.16;;;14.32;100.00
57801;BME280;43627;42.728;23.256;2022-12-11T08:43:51;93081.81;;;14.05;100.00
57801;BME280;43627;42.728;23.256;2022-12-11T08:46:22;93078.88;;;14.03;100.00
57801;BME280;43627;42.728;23.256;2022-12-11T08:48:50;93077.91;;;14.00;100.00
57801;BME280;43627;42.728;23.256;2022-12-11T08:51:19;93086.63;;;14.12;100.00
57801;BME280;43627;42.728;23.256;2022-12-11T08:53:48;93076.75;;;14.09;100.00
57801;BME280;43627;42.728;23.256;2022-12-11T08:56:18;93071.16;;;14.01;100.00
57801;BME280;43627;42.728;23.256;2022-12-11T08:58:46;93007.69;;;13.63;100.00
57801;BME280;43627;42.728;23.256;2022-12-11T09:01:16;93052.13;;;13.95;100.00
57801;BME280;43627;42.728;23.256;2022-12-11T09:03:43;93040.88;;;13.86;100.00
57801;BME280;43627;42.728;23.256;2022-12-11T09:06:15;92999.03;;;13.72;100.00
57801;BME280;43627;42.728;23.256;2022-12-11T09:08:44;93038.94;;;13.94;100.00
57801;BME280;43627;42.728;23.256;2022-12-11T09:11:20;93038.56;;;14.11;100.00
57801;BME280;43627;42.728;23.256;2022-12-11T09:13:47;93066.06;;;14.32;100.00
57801;BME280;43627;42.728;23.256;2022-12-11T09:16:16;93057.81;;;14.66;100.00
57801;BME280;43627;42.728;23.256;2022-12-11T09:18:45;93037.25;;;14.59;100.00
57801;BME280;43627;42.728;23.256;2022-12-11T09:21:15;93023.50;;;14.51;100.00
57801;BME280;43627;42.728;23.256;2022-12-11T09:23:42;93048.78;;;14.99;100.00
57801;BME280;43627;42.728;23.256;2022-12-11T09:26:12;93003.16;;;14.89;100.00
57801;BME280;43627;42.728;23.256;2022-12-11T09:28:40;93024.59;;;15.19;100.00
57801;BME280;43627;42.728;23.256;2022-12-11T09:31:15;92992.41;;;14.70;100.00
57801;BME280;43627;42.728;23.256;2022-12-11T09:33:43;93058.66;;;15.23;100.00
57801;BME280;43627;42.728;23.256;2022-12-11T09:36:10;93032.22;;;15.12;100.00
57801;BME280;43627;42.728;23.256;2022-12-11T09:38:38;93034.38;;;15.35;100.00
57801;BME280;43627;42.728;23.256;2022-12-11T09:43:58;93053.44;;;15.12;100.00
57801;BME280;43627;42.728;23.256;2022-12-11T09:46:27;93012.63;;;14.88;100.00
57801;BME280;43627;42.728;23.256;2022-12-11T09:49:01;93019.16;;;15.26;100.00
57801;BME280;43627;42.728;23.256;2022-12-11T09:51:41;93037.03;;;15.48;100.00
57801;BME280;43627;42.728;23.256;2022-12-11T09:54:11;93033.38;;;15.46;100.00
57801;BME280;43627;42.728;23.256;2022-12-11T09:57:04;93057.09;;;16.00;99.89
57801;BME280;43627;42.728;23.256;2022-12-11T10:03:01;93042.06;;;15.93;96.30
57801;BME280;43627;42.728;23.256;2022-12-11T10:05:46;93044.25;;;15.87;96.87
57801;BME280;43627;42.728;23.256;2022-12-11T10:14:04;93031.38;;;15.46;100.00
57801;BME280;43627;42.728;23.256;2022-12-11T10:16:43;93050.47;;;15.88;100.00
57801;BME280;43627;42.728;23.256;2022-12-11T10:19:18;93042.06;;;15.29;98.75
57801;BME280;43627;42.728;23.256;2022-12-11T10:21:46;93046.53;;;14.90;100.00
57801;BME280;43627;42.728;23.256;2022-12-11T10:24:39;93047.59;;;14.66;100.00
57801;BME280;43627;42.728;23.256;2022-12-11T10:27:28;93056.41;;;14.51;100.00
57801;BME280;43627;42.728;23.256;2022-12-11T10:35:44;93044.25;;;14.60;100.00
57801;BME280;43627;42.728;23.256;2022-12-11T10:38:16;93034.66;;;14.74;100.00
57801;BME280;43627;42.728;23.256;2022-12-11T10:40:46;93048.88;;;15.14;100.00
57801;BME280;43627;42.728;23.256;2022-12-11T10:43:14;93045.22;;;15.12;100.00
57801;BME280;43627;42.728;23.256;2022-12-11T10:45:52;93019.34;;;15.00;100.00
57801;BME280;43627;42.728;23.256;2022-12-11T10:48:20;93035.59;;;14.98;100.00
57801;BME280;43627;42.728;23.256;2022-12-11T10:51:00;92979.19;;;14.89;100.00
57801;BME280;43627;42.728;23.256;2022-12-11T10:53:35;93030.22;;;15.13;100.00
57801;BME280;43627;42.728;23.256;2022-12-11T10:56:02;92949.00;;;14.89;100.00
57801;BME280;43627;42.728;23.256;2022-12-11T10:58:32;93030.38;;;15.36;100.00
57801;BME280;43627;42.728;23.256;2022-12-11T11:01:18;92980.88;;;15.21;100.00
57801;BME280;43627;42.728;23.256;2022-12-11T11:04:14;93019.91;;;15.06;100.00
57801;BME280;43627;42.728;23.256;2022-12-11T11:06:45;92966.56;;;14.65;100.00
57801;BME280;43627;42.728;23.256;2022-12-11T11:09:35;93017.91;;;15.06;100.00
57801;BME280;43627;42.728;23.256;2022-12-11T11:12:24;92964.16;;;14.41;100.00
57801;BME280;43627;42.728;23.256;2022-12-11T11:15:04;93007.44;;;14.76;100.00
57801;BME280;43627;42.728;23.256;2022-12-11T11:17:41;92961.53;;;14.35;100.00
57801;BME280;43627;42.728;23.256;2022-12-11T11:20:30;92952.84;;;14.23;100.00
57801;BME280;43627;42.728;23.256;2022-12-11T11:22:59;92983.00;;;14.44;100.00
57801;BME280;43627;42.728;23.256;2022-12-11T11:25:29;92991.13;;;14.71;100.00
57801;BME280;43627;42.728;23.256;2022-12-11T11:28:04;92911.66;;;13.95;100.00
57801;BME280;43627;42.728;23.256;2022-12-11T11:30:37;93027.09;;;14.67;100.00
57801;BME280;43627;42.728;23.256;2022-12-11T11:33:14;93036.41;;;14.64;100.00
57801;BME280;43627;42.728;23.256;2022-12-11T11:36:01;92933.16;;;14.12;100.00
57801;BME280;43627;42.728;23.256;2022-12-11T11:41:36;92969.84;;;14.64;100.00
57801;BME280;43627;42.728;23.256;2022-12-11T11:44:09;92958.69;;;14.41;100.00
57801;BME280;43627;42.728;23.256;2022-12-11T11:46:48;92933.13;;;14.46;100.00
57801;BME280;43627;42.728;23.256;2022-12-11T11:49:43;93010.13;;;14.90;100.00
57801;BME280;43627;42.728;23.256;2022-12-11T11:52:33;93001.28;;;14.63;100.00
57801;BME280;43627;42.728;23.256;2022-12-11T11:58:20;92949.25;;;12.54;100.00
57801;BME280;43627;42.728;23.256;2022-12-11T12:00:54;92968.72;;;12.19;100.00
57801;BME280;43627;42.728;23.256;2022-12-11T12:03:23;92986.75;;;11.52;100.00
57801;BME280;43627;42.728;23.256;2022-12-11T12:06:01;93001.19;;;11.04;100.00
57801;BME280;43627;42.728;23.256;2022-12-11T12:19:59;93008.53;;;8.34;100.00
57801;BME280;43627;42.728;23.256;2022-12-11T12:22:34;93024.81;;;7.89;100.00
57801;BME280;43627;42.728;23.256;2022-12-11T12:44:45;93018.44;;;5.98;100.00
57801;BME280;43627;42.728;23.256;2022-12-11T12:47:16;93076.06;;;6.36;100.00
57801;BME280;43627;42.728;23.256;2022-12-11T12:49:52;93082.72;;;6.09;100.00
57801;BME280;43627;42.728;23.256;2022-12-11T12:54:54;93051.81;;;5.69;100.00
57801;BME280;43627;42.728;23.256;2022-12-11T12:57:56;93100.88;;;5.83;100.00
57801;BME280;43627;42.728;23.256;2022-12-11T13:00:41;93080.03;;;5.63;100.00
57801;BME280;43627;42.728;23.256;2022-12-11T13:03:13;93031.69;;;5.04;100.00
57801;BME280;43627;42.728;23.256;2022-12-11T13:05:53;93088.19;;;5.48;100.00
57801;BME280;43627;42.728;23.256;2022-12-11T13:08:26;93107.88;;;5.28;100.00
57801;BME280;43627;42.728;23.256;2022-12-11T13:11:02;93090.50;;;4.94;100.00
57801;BME280;43627;42.728;23.256;2022-12-11T13:13:35;93128.75;;;5.28;100.00
57801;BME280;43627;42.728;23.256;2022-12-11T13:18:45;93131.78;;;5.15;100.00
57801;BME280;43627;42.728;23.256;2022-12-11T13:21:32;93157.09;;;5.18;100.00
57801;BME280;43627;42.728;23.256;2022-12-11T13:24:26;93077.19;;;4.41;100.00
57801;BME280;43627;42.728;23.256;2022-12-11T13:26:53;93159.03;;;4.82;100.00
57801;BME280;43627;42.728;23.256;2022-12-11T13:29:34;93168.19;;;4.84;100.00
57801;BME280;43627;42.728;23.256;2022-12-11T13:32:20;93170.13;;;4.84;100.00
57801;BME280;43627;42.728;23.256;2022-12-11T13:34:54;93184.94;;;4.74;100.00
57801;BME280;43627;42.728;23.256;2022-12-11T13:37:44;93120.38;;;4.26;100.00
57801;BME280;43627;42.728;23.256;2022-12-11T13:40:23;93184.66;;;4.42;100.00
57801;BME280;43627;42.728;23.256;2022-12-11T13:42:56;93115.06;;;4.02;100.00
57801;BME280;43627;42.728;23.256;2022-12-11T13:45:56;93216.56;;;4.44;100.00
57801;BME280;43627;42.728;23.256;2022-12-11T13:51:04;93105.56;;;3.38;100.00
57801;BME280;43627;42.728;23.256;2022-12-11T13:53:31;93120.44;;;3.49;100.00
57801;BME280;43627;42.728;23.256;2022-12-11T13:56:04;93161.19;;;3.51;100.00
57801;BME280;43627;42.728;23.256;2022-12-11T13:58:38;93263.81;;;4.24;100.00
57801;BME280;43627;42.728;23.256;2022-12-11T14:01:21;93261.13;;;4.24;100.00
57801;BME280;43627;42.728;23.256;2022-12-11T14:03:55;93253.84;;;4.16;100.00
57801;BME280;43627;42.728;23.256;2022-12-11T14:06:24;93238.78;;;3.85;100.00
57801;BME280;43627;42.728;23.256;2022-12-11T14:08:57;93263.56;;;3.98;100.00
57801;BME280;43627;42.728;23.256;2022-12-11T14:11:49;93268.91;;;3.84;100.00
57801;BME280;43627;42.728;23.256;2022-12-11T14:14:32;93290.53;;;3.98;100.00
57801;BME280;43627;42.728;23.256;2022-12-11T14:17:01;93293.72;;;3.88;100.00
57801;BME280;43627;42.728;23.256;2022-12-11T14:19:29;93244.63;;;3.60;100.00
57801;BME280;43627;42.728;23.256;2022-12-11T14:22:01;93307.16;;;3.73;100.00
57801;BME280;43627;42.728;23.256;2022-12-11T14:24:29;93265.94;;;3.49;100.00
57801;BME280;43627;42.728;23.256;2022-12-11T14:26:57;93250.84;;;3.18;100.00